createdAt,value
2023-02-25T00:02:11.203Z,7.3
2023-02-25T00:04:58.908Z,8.3
2023-02-25T00:07:51.187Z,9.9
2023-02-25T00:10:39.313Z,9.3
2023-02-25T00:13:26.647Z,7.9
2023-02-25T00:16:15.148Z,7.7
2023-02-25T00:19:03.435Z,9.1
2023-02-25T00:21:51.261Z,9.6
2023-02-25T00:24:38.576Z,8.6
2023-02-25T00:27:26.178Z,7.5
2023-02-25T00:30:13.996Z,8.1
2023-02-25T00:33:01.638Z,9.9
2023-02-25T00:35:51.237Z,9.9
2023-02-25T00:38:38.989Z,8.4
2023-02-25T00:41:26.511Z,7.6
2023-02-25T00:44:15.419Z,8.7
2023-02-25T00:47:02.797Z,9.7
2023-02-25T00:49:51.173Z,9.6
2023-02-25T00:52:38.509Z,8.3
2023-02-25T00:55:26.440Z,7.8
2023-02-25T00:58:17.915Z,8.8
2023-02-25T01:01:05.764Z,10.3
2023-02-25T01:04:03.522Z,9.3
2023-02-25T01:06:53.149Z,8.1
2023-02-25T01:09:40.890Z,7.9
2023-02-25T01:12:28.451Z,9.1
2023-02-25T01:15:15.896Z,10
2023-02-25T01:18:03.382Z,9
2023-02-25T01:20:51.442Z,7.8
2023-02-25T01:23:38.759Z,8.2
2023-02-25T01:26:26.296Z,9.6
2023-02-25T01:29:16.385Z,9.7
2023-02-25T01:32:07.127Z,8.3
2023-02-25T01:34:58.327Z,7.9
2023-02-25T01:37:45.973Z,9.1
2023-02-25T01:40:34.758Z,10.3
2023-02-25T01:43:22.618Z,9.7
2023-02-25T01:46:10.440Z,8.2
2023-02-25T01:48:57.921Z,7.5
2023-02-25T01:51:47.090Z,8.7
2023-02-25T01:54:39.014Z,9.8
2023-02-25T01:57:29.833Z,9.1
2023-02-25T02:00:17.389Z,8
2023-02-25T02:03:05.733Z,8
2023-02-25T02:06:00.679Z,9.4
2023-02-25T02:08:55.260Z,9.5
2023-02-25T02:11:43.449Z,8.7
2023-02-25T02:14:30.813Z,7.8
2023-02-25T02:17:21.001Z,8.2
2023-02-25T02:20:12.495Z,9.6
2023-02-25T02:23:05.532Z,9.4
2023-02-25T02:26:31.970Z,7.9
2023-02-25T02:29:46.940Z,8.4
2023-02-25T02:32:59.978Z,10.1
2023-02-25T02:35:59.684Z,9.8
2023-02-25T02:38:53.821Z,8.2
2023-02-25T02:41:53.391Z,8.3
2023-02-25T02:44:47.658Z,9.7
2023-02-25T02:47:41.813Z,9.8
2023-02-25T02:50:34.983Z,8.4
2023-02-25T02:53:26.462Z,7.8
2023-02-25T02:56:19.698Z,9.2
2023-02-25T02:59:09.975Z,10.2
2023-02-25T03:02:00.382Z,9.5
2023-02-25T03:04:53.469Z,8.1
2023-02-25T03:07:46.021Z,7.9
2023-02-25T03:10:41.022Z,9.2
2023-02-25T03:13:29.521Z,10.1
2023-02-25T03:16:17.232Z,8.8
2023-02-25T03:19:09.669Z,7.6
2023-02-25T03:22:00.966Z,8.3
2023-02-25T03:24:53.045Z,9.7
2023-02-25T03:27:47.385Z,9.5
2023-02-25T03:30:37.642Z,8.5
2023-02-25T03:33:29.615Z,7.6
2023-02-25T03:36:22.754Z,8.9
2023-02-25T03:39:13.683Z,10
2023-02-25T03:42:06.935Z,9.3
2023-02-25T03:45:00.851Z,7.9
2023-02-25T03:47:53.020Z,8.5
2023-02-25T03:50:42.741Z,9.9
2023-02-25T03:53:35.027Z,9.3
2023-02-25T03:56:23.347Z,8.2
2023-02-25T03:59:11.352Z,8.4
2023-02-25T04:01:59.717Z,9.3
2023-02-25T04:04:48.198Z,10.4
2023-02-25T04:07:35.739Z,9
2023-02-25T04:10:24.122Z,7.7
2023-02-25T04:13:12.771Z,7.9
2023-02-25T04:16:01.949Z,9.7
2023-02-25T04:18:50.253Z,10.2
2023-02-25T04:21:37.591Z,9
2023-02-25T04:24:25.004Z,7.7
2023-02-25T04:27:12.374Z,7.8
2023-02-25T04:30:00.281Z,9.4
2023-02-25T04:32:48.213Z,9.8
2023-02-25T04:35:35.580Z,8.5
2023-02-25T04:38:23.763Z,7.6
2023-02-25T04:41:11.067Z,8.4
2023-02-25T04:43:58.388Z,10.1
2023-02-25T04:46:49.538Z,9.2
2023-02-25T04:49:36.986Z,7.8
2023-02-25T04:52:29.424Z,8.1
2023-02-25T04:55:16.865Z,9.2
2023-02-25T04:58:05.077Z,10.1
2023-02-25T05:00:53.541Z,8.5
2023-02-25T05:03:42.479Z,7.4
2023-02-25T05:06:29.871Z,8.6
2023-02-25T05:09:17.633Z,9.7
2023-02-25T05:12:06.175Z,8.9
2023-02-25T05:14:54.767Z,7.8
2023-02-25T05:17:42.393Z,7.6
2023-02-25T05:20:29.885Z,9
2023-02-25T05:23:17.402Z,9.7
2023-02-25T05:26:04.990Z,8.7
2023-02-25T05:28:53.795Z,7.5
2023-02-25T05:31:42.758Z,8
2023-02-25T05:34:30.307Z,9.5
2023-02-25T05:37:17.660Z,9.7
2023-02-25T05:40:05.485Z,8.5
2023-02-25T05:42:58.482Z,7.2
2023-02-25T05:45:45.758Z,8.3
2023-02-25T05:48:38.858Z,9.6
2023-02-25T05:51:30.545Z,9.3
2023-02-25T05:54:17.929Z,7.8
2023-02-25T05:57:05.386Z,8
2023-02-25T05:59:52.712Z,9.5
2023-02-25T06:02:40.141Z,9.4
2023-02-25T06:05:28.892Z,8.1
2023-02-25T06:08:16.706Z,7.4
2023-02-25T06:11:04.414Z,8.2
2023-02-25T06:13:53.426Z,9.6
2023-02-25T06:16:42.014Z,8.7
2023-02-25T06:19:29.671Z,7.6
2023-02-25T06:22:17.102Z,7.7
2023-02-25T06:25:05.102Z,8.8
2023-02-25T06:27:53.566Z,9.6
2023-02-25T06:30:41.245Z,8.3
2023-02-25T06:33:28.580Z,7.3
2023-02-25T06:36:16.856Z,7.9
2023-02-25T06:39:05.885Z,9.6
2023-02-25T06:41:53.284Z,9.1
2023-02-25T06:44:40.705Z,7.3
2023-02-25T06:47:28.139Z,7.7
2023-02-25T06:50:15.621Z,8.9
2023-02-25T06:53:03.470Z,9.6
2023-02-25T06:55:52.678Z,8.5
2023-02-25T06:58:40.743Z,7.2
2023-02-25T07:01:28.369Z,7.4
2023-02-25T07:04:16.113Z,8.5
2023-02-25T07:07:05.100Z,9.4
2023-02-25T07:09:54.507Z,8.3
2023-02-25T07:12:41.855Z,7.3
2023-02-25T07:15:29.320Z,8
2023-02-25T07:18:16.884Z,9.4
2023-02-25T07:21:05.168Z,9
2023-02-25T07:23:53.329Z,8
2023-02-25T07:26:40.958Z,6.9
2023-02-25T07:29:28.456Z,7.7
2023-02-25T07:32:16.612Z,9.4
2023-02-25T07:35:04.114Z,9
2023-02-25T07:37:53.770Z,7.4
2023-02-25T07:40:41.073Z,7.7
2023-02-25T07:43:28.402Z,8.7
2023-02-25T07:46:16.068Z,9.7
2023-02-25T07:49:03.446Z,8.2
2023-02-25T07:51:51.476Z,7.3
2023-02-25T07:54:38.933Z,8.6
2023-02-25T07:57:26.516Z,9.5
2023-02-25T08:00:14.202Z,9
2023-02-25T08:03:02.502Z,7.9
2023-02-25T08:05:50.334Z,8
2023-02-25T08:08:38.820Z,9.8
2023-02-25T08:11:26.803Z,9.4
2023-02-25T08:14:14.222Z,8.1
2023-02-25T08:17:01.959Z,7.6
2023-02-25T08:19:49.353Z,9.4
2023-02-25T08:22:37.678Z,10.3
2023-02-25T08:25:25.070Z,8.9
2023-02-25T08:28:12.577Z,7.6
2023-02-25T08:31:00.058Z,8.7
2023-02-25T08:33:48.114Z,10.3
2023-02-25T08:36:37.292Z,9.4
2023-02-25T08:39:24.856Z,8
2023-02-25T08:42:13.747Z,8.1
2023-02-25T08:45:03.565Z,9.8
2023-02-25T08:47:52.498Z,9.5
2023-02-25T08:50:40.046Z,7.9
2023-02-25T08:53:27.400Z,8.5
2023-02-25T08:56:15.012Z,9.6
2023-02-25T08:59:03.276Z,10
2023-02-25T09:01:51.874Z,8.7
2023-02-25T09:04:39.250Z,7.9
2023-02-25T09:07:26.976Z,9.4
2023-02-25T09:10:14.371Z,10.2
2023-02-25T09:13:02.653Z,9.7
2023-02-25T09:15:50.365Z,8.2
2023-02-25T09:18:42.576Z,8.8
2023-02-25T09:21:31.031Z,9.6
2023-02-25T09:24:20.696Z,10.3
2023-02-25T09:27:08.706Z,9.1
2023-02-25T09:29:56.268Z,8.1
2023-02-25T09:32:43.850Z,8.7
2023-02-25T09:35:31.770Z,9.9
2023-02-25T09:38:19.116Z,9.3
2023-02-25T09:41:06.799Z,8.1
2023-02-25T09:44:10.280Z,8.6
2023-02-25T09:47:00.614Z,9.9
2023-02-25T09:49:55.096Z,9.2
2023-02-25T09:52:46.645Z,8.1
2023-02-25T09:55:46.197Z,8.2
2023-02-25T09:58:36.550Z,9.8
2023-02-25T10:01:28.432Z,9.8
2023-02-25T10:04:21.005Z,8.5
2023-02-25T10:07:17.747Z,8.5
2023-02-25T10:10:09.493Z,9.7
2023-02-25T10:13:05.791Z,9.7
2023-02-25T10:16:06.052Z,8.4
2023-02-25T10:19:12.147Z,8.9
2023-02-25T10:22:13.310Z,9.9
2023-02-25T10:25:13.914Z,9.6
2023-02-25T10:28:05.981Z,8.5
2023-02-25T10:31:01.382Z,8.5
2023-02-25T10:33:53.311Z,9.7
2023-02-25T10:36:42.385Z,9.7
2023-02-25T10:39:37.183Z,8.5
2023-02-25T10:42:25.679Z,7.9
2023-02-25T10:45:15.006Z,9.3
2023-02-25T10:48:08.511Z,10.5
2023-02-25T10:51:04.660Z,9.4
2023-02-25T10:53:56.747Z,8.1
2023-02-25T10:56:50.438Z,9
2023-02-25T10:59:39.499Z,10.5
2023-02-25T11:02:28.773Z,10.6
2023-02-25T11:05:23.343Z,9.5
2023-02-25T11:08:21.630Z,9
2023-02-25T11:11:14.890Z,9.9
2023-02-25T11:14:05.999Z,10.7
2023-02-25T11:17:01.541Z,10.2
2023-02-25T11:19:52.524Z,8.7
2023-02-25T11:22:46.715Z,8.6
2023-02-25T11:25:37.820Z,10.3
2023-02-25T11:28:28.326Z,10.8
2023-02-25T11:31:19.156Z,9.5
2023-02-25T11:34:10.479Z,8.6
2023-02-25T11:37:06.024Z,9.2
2023-02-25T11:40:19.852Z,10.4
2023-02-25T11:43:12.215Z,9.9
2023-02-25T11:46:03.910Z,8.7
2023-02-25T11:48:57.703Z,9
2023-02-25T11:51:57.138Z,10.4
2023-02-25T11:54:50.455Z,10.3
2023-02-25T11:57:50.251Z,8.9
2023-02-25T12:00:54.370Z,9
2023-02-25T12:03:45.895Z,10.4
2023-02-25T12:06:56.595Z,10.2
2023-02-25T12:10:07.599Z,8.9
2023-02-25T12:13:15.849Z,9.1
2023-02-25T12:16:22.294Z,10.8
2023-02-25T12:19:50.037Z,9.9
2023-02-25T12:23:03.371Z,8.5
2023-02-25T12:26:54.280Z,9.5
2023-02-25T12:30:24.843Z,10.6
2023-02-25T12:33:42.438Z,9.5
2023-02-25T12:36:48.660Z,8.6
2023-02-25T12:39:50.553Z,9.8
2023-02-25T12:42:52.709Z,10.6
2023-02-25T12:45:54.101Z,9.3
2023-02-25T12:49:10.041Z,8.1
2023-02-25T12:52:24.469Z,9
2023-02-25T12:55:25.966Z,10.6
2023-02-25T12:58:54.444Z,10
2023-02-25T13:02:05.554Z,8.4
2023-02-25T13:05:35.785Z,9.3
2023-02-25T13:09:11.601Z,10.6
2023-02-25T13:12:21.845Z,9.4
2023-02-25T13:15:29.690Z,8
2023-02-25T13:18:26.021Z,8.9
2023-02-25T13:21:23.748Z,10.5
2023-02-25T13:24:24.798Z,10.3
2023-02-25T13:27:27.893Z,8.9
2023-02-25T13:30:28.596Z,8.4
2023-02-25T13:33:26.501Z,9.9
2023-02-25T13:36:28.556Z,10.5
2023-02-25T13:39:40.619Z,9.1
2023-02-25T13:43:01.567Z,8.4
2023-02-25T13:46:14.257Z,10.2
2023-02-25T13:49:21.806Z,10.5
2023-02-25T13:52:40.794Z,9.1
2023-02-25T13:55:44.350Z,8.3
2023-02-25T13:58:54.656Z,9.9
2023-02-25T14:01:57.166Z,10.3
2023-02-25T14:04:57.269Z,9.2
2023-02-25T14:08:13.106Z,8.3
2023-02-25T14:11:29.336Z,10.2
2023-02-25T14:14:32.494Z,11
2023-02-25T14:17:49.624Z,9.6
2023-02-25T14:20:50.316Z,8.3
2023-02-25T14:23:51.990Z,8.8
2023-02-25T14:26:46.856Z,10.5
2023-02-25T14:29:44.826Z,10.4
2023-02-25T14:32:48.547Z,9.2
2023-02-25T14:35:52.760Z,8
2023-02-25T14:38:52.584Z,9
2023-02-25T14:41:59.848Z,10.4
2023-02-25T14:45:02.898Z,9.3
2023-02-25T14:48:04.059Z,7.9
2023-02-25T14:50:59.385Z,8.5
2023-02-25T14:54:05.505Z,9.9
2023-02-25T14:57:49.020Z,8.8
2023-02-25T15:01:06.022Z,7.7
2023-02-25T15:04:39.480Z,9.4
2023-02-25T15:07:49.181Z,10.2
2023-02-25T15:10:54.176Z,9.2
2023-02-25T15:14:02.041Z,7.9
2023-02-25T15:17:21.361Z,8.5
2023-02-25T15:20:27.500Z,10.5
2023-02-25T15:23:19.100Z,10
2023-02-25T15:26:25.937Z,8.6
2023-02-25T15:29:27.740Z,7.5
2023-02-25T15:32:48.026Z,8.8
2023-02-25T15:35:42.418Z,10.1
2023-02-25T15:38:42.546Z,9
2023-02-25T15:41:32.083Z,7.8
2023-02-25T15:44:30.180Z,7.3
2023-02-25T15:47:20.791Z,8.8
2023-02-25T15:50:11.990Z,9.9
2023-02-25T15:53:37.790Z,8.7
2023-02-25T15:56:29.560Z,7.5
2023-02-25T15:59:34.171Z,8.1
2023-02-25T16:02:27.263Z,9.6
2023-02-25T16:05:23.557Z,9.3
2023-02-25T16:08:17.300Z,8.1
2023-02-25T16:11:09.374Z,7
2023-02-25T16:14:08.821Z,8.2
2023-02-25T16:17:02.356Z,9.3
2023-02-25T16:19:59.230Z,8.6
2023-02-25T16:22:56.578Z,7.3
2023-02-25T16:25:45.780Z,6.8
2023-02-25T16:28:42.900Z,8.4
2023-02-25T16:31:39.388Z,9.3
2023-02-25T16:34:35.240Z,8.2
2023-02-25T16:37:31.558Z,7
2023-02-25T16:40:27.878Z,6.5
2023-02-25T16:43:19.545Z,8.2
2023-02-25T16:46:10.485Z,8.8
2023-02-25T16:49:02.423Z,7.8
2023-02-25T16:51:55.029Z,6.7
2023-02-25T16:54:43.280Z,6.8
2023-02-25T16:57:32.148Z,8.5
2023-02-25T17:00:21.185Z,8.6
2023-02-25T17:03:09.844Z,7.5
2023-02-25T17:05:57.252Z,6.4
2023-02-25T17:08:49.220Z,6.5
2023-02-25T17:11:36.933Z,8.2
2023-02-25T17:14:24.538Z,8
2023-02-25T17:17:13.381Z,6.9
2023-02-25T17:20:06.479Z,5.8
2023-02-25T17:23:01.889Z,6.2
2023-02-25T17:25:54.159Z,8
2023-02-25T17:28:43.722Z,7.7
2023-02-25T17:31:34.483Z,6.6
2023-02-25T17:34:28.425Z,5.5
2023-02-25T17:37:19.596Z,5
2023-02-25T17:40:09.319Z,6.4
2023-02-25T17:43:00.314Z,7.9
2023-02-25T17:46:08.020Z,7
2023-02-25T17:49:12.054Z,5.8
2023-02-25T17:52:06.304Z,5
2023-02-25T17:55:03.818Z,5.6
2023-02-25T17:58:08.995Z,7.6
2023-02-25T18:01:07.600Z,7.1
2023-02-25T18:04:07.773Z,5.9
2023-02-25T18:07:09.376Z,5.1
2023-02-25T18:10:07.175Z,6.6
2023-02-25T18:13:29.718Z,7
2023-02-25T18:16:20.251Z,6
2023-02-25T18:19:17.130Z,4.9
2023-02-25T18:22:11.873Z,4.8
2023-02-25T18:25:32.524Z,7.1
2023-02-25T18:28:22.787Z,7.3
2023-02-25T18:31:10.260Z,6.2
2023-02-25T18:33:59.223Z,5.3
2023-02-25T18:36:47.063Z,4.6
2023-02-25T18:39:34.676Z,5.9
2023-02-25T18:42:22.504Z,7.4
2023-02-25T18:45:09.964Z,6.7
2023-02-25T18:48:00.529Z,5.7
2023-02-25T18:50:48.331Z,4.8
2023-02-25T18:53:35.769Z,4.1
2023-02-25T18:56:24.065Z,5.1
2023-02-25T18:59:11.526Z,7
2023-02-25T19:01:59.118Z,6.7
2023-02-25T19:04:47.163Z,5.7
2023-02-25T19:07:34.499Z,4.8
2023-02-25T19:10:22.328Z,4.1
2023-02-25T19:13:11.509Z,5.1
2023-02-25T19:16:02.086Z,7.1
2023-02-25T19:18:50.357Z,6.4
2023-02-25T19:21:37.831Z,5.5
2023-02-25T19:24:25.292Z,4.7
2023-02-25T19:27:12.713Z,5.3
2023-02-25T19:30:05.397Z,7.2
2023-02-25T19:32:58.899Z,7.4
2023-02-25T19:35:48.090Z,6.4
2023-02-25T19:38:35.536Z,5.4
2023-02-25T19:41:22.873Z,4.6
2023-02-25T19:44:10.265Z,5.7
2023-02-25T19:46:57.591Z,7.4
2023-02-25T19:49:45.209Z,7.1
2023-02-25T19:52:32.567Z,6
2023-02-25T19:55:20.806Z,5
2023-02-25T19:58:08.752Z,4.5
2023-02-25T20:00:56.358Z,5.9
2023-02-25T20:03:48.066Z,7
2023-02-25T20:06:35.781Z,6.2
2023-02-25T20:09:23.801Z,5.2
2023-02-25T20:12:11.657Z,4.5
2023-02-25T20:14:59.859Z,5.8
2023-02-25T20:17:47.823Z,7.4
2023-02-25T20:20:39.497Z,6.7
2023-02-25T20:23:27.535Z,5.6
2023-02-25T20:26:16.197Z,4.6
2023-02-25T20:29:05.345Z,5
2023-02-25T20:31:55.354Z,7
2023-02-25T20:34:44.142Z,6.9
2023-02-25T20:37:32.590Z,5.8
2023-02-25T20:40:24.406Z,4.8
2023-02-25T20:43:12.566Z,4.3
2023-02-25T20:46:01.702Z,6
2023-02-25T20:48:50.374Z,7.1
2023-02-25T20:51:38.955Z,6.2
2023-02-25T20:54:29.290Z,5.1
2023-02-25T20:57:16.952Z,4.3
2023-02-25T21:00:07.024Z,5.6
2023-02-25T21:03:00.698Z,7.5
2023-02-25T21:05:49.416Z,7.1
2023-02-25T21:08:37.508Z,5.9
2023-02-25T21:11:26.318Z,4.9
2023-02-25T21:14:14.301Z,5.4
2023-02-25T21:17:02.510Z,7.4
2023-02-25T21:19:53.952Z,7.4
2023-02-25T21:22:41.858Z,6.3
2023-02-25T21:25:29.938Z,5.2
2023-02-25T21:28:17.926Z,5.6
2023-02-25T21:31:06.338Z,7.4
2023-02-25T21:33:56.485Z,7
2023-02-25T21:36:44.573Z,6
2023-02-25T21:39:32.432Z,5
2023-02-25T21:42:20.365Z,5.4
2023-02-25T21:45:08.786Z,7.3
2023-02-25T21:47:57.740Z,7.2
2023-02-25T21:50:45.810Z,6.1
2023-02-25T21:53:34.042Z,5
2023-02-25T21:56:22.129Z,4.9
2023-02-25T21:59:11.544Z,6.8
2023-02-25T22:02:01.456Z,7.1
2023-02-25T22:04:49.245Z,5.9
2023-02-25T22:07:37.114Z,4.8
2023-02-25T22:10:25.017Z,4.8
2023-02-25T22:13:12.922Z,6.6
2023-02-25T22:16:00.635Z,7
2023-02-25T22:18:48.849Z,5.8
2023-02-25T22:21:37.162Z,4.7
2023-02-25T22:24:25.041Z,5.1
2023-02-25T22:27:13.060Z,7
2023-02-25T22:30:00.732Z,7.2
2023-02-25T22:32:50.439Z,6
2023-02-25T22:35:38.190Z,4.8
2023-02-25T22:38:25.853Z,4.5
2023-02-25T22:41:14.316Z,6.2
2023-02-25T22:44:04.565Z,6.8
2023-02-25T22:46:53.293Z,5.9
2023-02-25T22:49:41.053Z,4.8
2023-02-25T22:52:28.557Z,4.7
2023-02-25T22:55:16.263Z,6.6
2023-02-25T22:58:03.812Z,6.8
2023-02-25T23:00:51.835Z,5.7
2023-02-25T23:03:39.481Z,4.6
2023-02-25T23:06:42.430Z,5.1
2023-02-25T23:09:31.155Z,7
2023-02-25T23:12:20.630Z,6.8
2023-02-25T23:15:08.929Z,5.7
2023-02-25T23:17:57.248Z,4.5
2023-02-25T23:20:48.085Z,4.9
2023-02-25T23:23:38.226Z,6.7
2023-02-25T23:26:27.213Z,6.8
2023-02-25T23:29:18.323Z,5.6
2023-02-25T23:32:06.795Z,4.5
2023-02-25T23:34:55.559Z,4.5
2023-02-25T23:37:42.997Z,6.2
2023-02-25T23:40:31.846Z,7
2023-02-25T23:43:20.169Z,6
2023-02-25T23:46:08.082Z,4.8
2023-02-25T23:48:56.327Z,4.4
2023-02-25T23:51:46.202Z,6
2023-02-25T23:54:34.187Z,6.6
2023-02-25T23:57:21.815Z,5.6
